sensor_id;sensor_type;location;lat;lon;timestamp;pressure;altitude;pressure_sealevel;temperature;humidity
64602;BME280;68371;42.630;23.192;2024-03-02T00:00:49;91739.69;;;7.59;90.59
64602;BME280;68371;42.630;23.192;2024-03-02T00:03:16;91730.34;;;7.58;90.84
64602;BME280;68371;42.630;23.192;2024-03-02T00:05:43;91735.47;;;7.55;91.30
64602;BME280;68371;42.630;23.192;2024-03-02T00:08:12;91736.66;;;7.57;91.57
64602;BME280;68371;42.630;23.192;2024-03-02T00:10:45;91741.56;;;7.59;91.84
64602;BME280;68371;42.630;23.192;2024-03-02T00:13:12;91744.69;;;7.36;92.08
64602;BME280;68371;42.630;23.192;2024-03-02T00:15:46;91753.59;;;7.35;92.65
64602;BME280;68371;42.630;23.192;2024-03-02T00:18:18;91739.75;;;7.47;92.25
64602;BME280;68371;42.630;23.192;2024-03-02T00:20:45;91743.53;;;7.50;92.18
64602;BME280;68371;42.630;23.192;2024-03-02T00:23:15;91738.66;;;7.48;92.28
64602;BME280;68371;42.630;23.192;2024-03-02T00:25:43;91736.69;;;7.45;92.16
64602;BME280;68371;42.630;23.192;2024-03-02T00:28:15;91737.56;;;7.49;92.64
64602;BME280;68371;42.630;23.192;2024-03-02T00:30:57;91728.72;;;7.54;92.74
64602;BME280;68371;42.630;23.192;2024-03-02T00:33:27;91700.47;;;7.31;92.64
64602;BME280;68371;42.630;23.192;2024-03-02T00:35:54;91724.91;;;7.51;92.91
64602;BME280;68371;42.630;23.192;2024-03-02T00:38:21;91730.44;;;7.62;92.71
64602;BME280;68371;42.630;23.192;2024-03-02T00:40:48;91724.13;;;7.63;92.51
64602;BME280;68371;42.630;23.192;2024-03-02T00:43:39;91724.34;;;7.58;92.73
64602;BME280;68371;42.630;23.192;2024-03-02T00:46:09;91725.34;;;7.53;93.00
64602;BME280;68371;42.630;23.192;2024-03-02T00:48:37;91733.94;;;7.54;92.84
64602;BME280;68371;42.630;23.192;2024-03-02T00:51:05;91732.22;;;7.46;93.15
64602;BME280;68371;42.630;23.192;2024-03-02T00:53:32;91732.75;;;7.51;93.61
64602;BME280;68371;42.630;23.192;2024-03-02T00:55:59;91711.84;;;7.51;93.98
64602;BME280;68371;42.630;23.192;2024-03-02T00:58:26;91722.88;;;7.45;94.07
64602;BME280;68371;42.630;23.192;2024-03-02T01:00:52;91723.72;;;7.49;93.99
64602;BME280;68371;42.630;23.192;2024-03-02T01:03:21;91719.50;;;7.44;94.14
64602;BME280;68371;42.630;23.192;2024-03-02T01:05:47;91718.84;;;7.47;93.95
64602;BME280;68371;42.630;23.192;2024-03-02T01:08:14;91723.63;;;7.45;94.01
64602;BME280;68371;42.630;23.192;2024-03-02T01:10:41;91711.53;;;7.53;93.88
64602;BME280;68371;42.630;23.192;2024-03-02T01:13:08;91713.88;;;7.58;94.03
64602;BME280;68371;42.630;23.192;2024-03-02T01:15:35;91727.38;;;7.60;94.04
64602;BME280;68371;42.630;23.192;2024-03-02T01:18:02;91707.81;;;7.54;93.97
64602;BME280;68371;42.630;23.192;2024-03-02T01:20:31;91713.03;;;7.54;94.29
64602;BME280;68371;42.630;23.192;2024-03-02T01:22:57;91710.84;;;7.56;94.12
64602;BME280;68371;42.630;23.192;2024-03-02T01:25:24;91708.00;;;7.61;93.73
64602;BME280;68371;42.630;23.192;2024-03-02T01:27:51;91709.44;;;7.58;93.93
64602;BME280;68371;42.630;23.192;2024-03-02T01:30:18;91696.69;;;7.57;93.86
64602;BME280;68371;42.630;23.192;2024-03-02T01:32:44;91699.09;;;7.50;94.09
64602;BME280;68371;42.630;23.192;2024-03-02T01:35:11;91702.72;;;7.45;94.34
64602;BME280;68371;42.630;23.192;2024-03-02T01:37:39;91693.88;;;7.50;94.55
64602;BME280;68371;42.630;23.192;2024-03-02T01:40:07;91693.97;;;7.53;94.38
64602;BME280;68371;42.630;23.192;2024-03-02T01:42:35;91695.94;;;7.56;94.09
64602;BME280;68371;42.630;23.192;2024-03-02T01:45:04;91688.97;;;7.60;93.48
64602;BME280;68371;42.630;23.192;2024-03-02T01:47:31;91695.59;;;7.58;93.73
64602;BME280;68371;42.630;23.192;2024-03-02T01:49:59;91686.66;;;7.59;93.59
64602;BME280;68371;42.630;23.192;2024-03-02T01:52:26;91689.47;;;7.66;93.66
64602;BME280;68371;42.630;23.192;2024-03-02T01:54:54;91687.63;;;7.67;93.95
64602;BME280;68371;42.630;23.192;2024-03-02T01:57:21;91679.34;;;7.65;94.17
64602;BME280;68371;42.630;23.192;2024-03-02T01:59:48;91686.09;;;7.66;93.79
64602;BME280;68371;42.630;23.192;2024-03-02T02:02:16;91680.44;;;7.63;93.81
64602;BME280;68371;42.630;23.192;2024-03-02T02:04:42;91683.09;;;7.51;94.77
64602;BME280;68371;42.630;23.192;2024-03-02T02:07:09;91688.19;;;7.60;94.60
64602;BME280;68371;42.630;23.192;2024-03-02T02:09:36;91693.50;;;7.63;94.48
64602;BME280;68371;42.630;23.192;2024-03-02T02:12:05;91688.53;;;7.58;94.56
64602;BME280;68371;42.630;23.192;2024-03-02T02:14:33;91677.22;;;7.54;94.52
64602;BME280;68371;42.630;23.192;2024-03-02T02:17:00;91689.59;;;7.57;94.18
64602;BME280;68371;42.630;23.192;2024-03-02T02:19:26;91676.88;;;7.56;94.61
64602;BME280;68371;42.630;23.192;2024-03-02T02:21:55;91676.13;;;7.55;95.05
64602;BME280;68371;42.630;23.192;2024-03-02T02:24:21;91684.53;;;7.49;95.67
64602;BME280;68371;42.630;23.192;2024-03-02T02:26:48;91687.25;;;7.52;95.90
64602;BME280;68371;42.630;23.192;2024-03-02T02:29:15;91683.09;;;7.51;95.52
64602;BME280;68371;42.630;23.192;2024-03-02T02:31:42;91671.47;;;7.49;95.13
64602;BME280;68371;42.630;23.192;2024-03-02T02:34:09;91676.22;;;7.59;95.20
64602;BME280;68371;42.630;23.192;2024-03-02T02:36:38;91682.53;;;7.58;94.92
64602;BME280;68371;42.630;23.192;2024-03-02T02:39:09;91686.78;;;7.62;95.00
64602;BME280;68371;42.630;23.192;2024-03-02T02:41:38;91680.88;;;7.66;95.30
64602;BME280;68371;42.630;23.192;2024-03-02T02:44:05;91679.34;;;7.65;95.29
64602;BME280;68371;42.630;23.192;2024-03-02T02:46:31;91687.53;;;7.63;93.86
64602;BME280;68371;42.630;23.192;2024-03-02T02:48:58;91683.81;;;7.64;93.89
64602;BME280;68371;42.630;23.192;2024-03-02T02:51:25;91679.34;;;7.65;93.93
64602;BME280;68371;42.630;23.192;2024-03-02T02:53:52;91685.09;;;7.70;94.36
64602;BME280;68371;42.630;23.192;2024-03-02T02:56:20;91683.69;;;7.73;94.07
64602;BME280;68371;42.630;23.192;2024-03-02T02:58:46;91683.69;;;7.73;94.29
64602;BME280;68371;42.630;23.192;2024-03-02T03:01:13;91690.03;;;7.59;94.52
64602;BME280;68371;42.630;23.192;2024-03-02T03:03:43;91696.00;;;7.60;94.75
64602;BME280;68371;42.630;23.192;2024-03-02T03:06:09;91690.56;;;7.65;94.56
64602;BME280;68371;42.630;23.192;2024-03-02T03:08:36;91680.28;;;7.72;94.43
64602;BME280;68371;42.630;23.192;2024-03-02T03:11:03;91688.81;;;7.69;94.42
64602;BME280;68371;42.630;23.192;2024-03-02T03:13:31;91679.53;;;7.72;94.46
64602;BME280;68371;42.630;23.192;2024-03-02T03:15:58;91684.84;;;7.75;94.70
64602;BME280;68371;42.630;23.192;2024-03-02T03:18:25;91691.25;;;7.78;94.74
64602;BME280;68371;42.630;23.192;2024-03-02T03:20:52;91683.75;;;7.76;94.55
64602;BME280;68371;42.630;23.192;2024-03-02T03:23:18;91680.69;;;7.74;94.72
64602;BME280;68371;42.630;23.192;2024-03-02T03:25:46;91683.75;;;7.76;95.02
64602;BME280;68371;42.630;23.192;2024-03-02T03:28:12;91681.06;;;7.73;95.00
64602;BME280;68371;42.630;23.192;2024-03-02T03:30:40;91680.81;;;7.78;94.71
64602;BME280;68371;42.630;23.192;2024-03-02T03:33:08;91677.34;;;7.74;94.52
64602;BME280;68371;42.630;23.192;2024-03-02T03:35:35;91688.91;;;7.73;94.60
64602;BME280;68371;42.630;23.192;2024-03-02T03:38:03;91691.16;;;7.74;94.28
64602;BME280;68371;42.630;23.192;2024-03-02T03:40:29;91691.25;;;7.78;94.15
64602;BME280;68371;42.630;23.192;2024-03-02T03:42:56;91684.28;;;7.82;94.12
64602;BME280;68371;42.630;23.192;2024-03-02T03:45:23;91682.50;;;7.86;93.97
64602;BME280;68371;42.630;23.192;2024-03-02T03:47:53;91674.66;;;7.86;93.98
64602;BME280;68371;42.630;23.192;2024-03-02T03:50:19;91673.91;;;7.86;93.64
64602;BME280;68371;42.630;23.192;2024-03-02T03:52:46;91675.66;;;7.81;93.80
64602;BME280;68371;42.630;23.192;2024-03-02T03:55:13;91674.56;;;7.82;93.55
64602;BME280;68371;42.630;23.192;2024-03-02T03:57:41;91675.34;;;7.83;93.79
64602;BME280;68371;42.630;23.192;2024-03-02T04:00:08;91681.44;;;7.87;93.79
64602;BME280;68371;42.630;23.192;2024-03-02T04:02:36;91683.25;;;7.87;93.40
64602;BME280;68371;42.630;23.192;2024-03-02T04:05:05;91669.16;;;7.75;93.82
64602;BME280;68371;42.630;23.192;2024-03-02T04:07:35;91679.03;;;7.82;93.72
64602;BME280;68371;42.630;23.192;2024-03-02T04:10:07;91683.31;;;7.74;93.80
64602;BME280;68371;42.630;23.192;2024-03-02T04:12:35;91672.53;;;7.76;93.76
64602;BME280;68371;42.630;23.192;2024-03-02T04:15:02;91681.63;;;7.66;93.69
64602;BME280;68371;42.630;23.192;2024-03-02T04:17:31;91682.53;;;7.58;94.48
64602;BME280;68371;42.630;23.192;2024-03-02T04:19:57;91676.00;;;7.52;94.88
64602;BME280;68371;42.630;23.192;2024-03-02T04:22:27;91679.09;;;7.41;95.31
64602;BME280;68371;42.630;23.192;2024-03-02T04:24:54;91679.00;;;7.38;95.59
64602;BME280;68371;42.630;23.192;2024-03-02T04:27:21;91686.34;;;7.32;95.97
64602;BME280;68371;42.630;23.192;2024-03-02T04:29:47;91687.63;;;7.38;95.70
64602;BME280;68371;42.630;23.192;2024-03-02T04:32:14;91687.63;;;7.38;95.71
64602;BME280;68371;42.630;23.192;2024-03-02T04:34:41;91691.50;;;7.45;95.85
64602;BME280;68371;42.630;23.192;2024-03-02T04:37:08;91691.19;;;7.46;95.96
64602;BME280;68371;42.630;23.192;2024-03-02T04:39:36;91687.25;;;7.40;95.96
64602;BME280;68371;42.630;23.192;2024-03-02T04:42:03;91684.38;;;7.29;96.22
64602;BME280;68371;42.630;23.192;2024-03-02T04:44:29;91683.47;;;7.37;96.49
64602;BME280;68371;42.630;23.192;2024-03-02T04:46:56;91685.44;;;7.40;96.44
64602;BME280;68371;42.630;23.192;2024-03-02T04:49:23;91695.53;;;7.42;96.62
64602;BME280;68371;42.630;23.192;2024-03-02T04:51:50;91692.75;;;7.35;96.82
64602;BME280;68371;42.630;23.192;2024-03-02T04:54:16;91686.84;;;7.38;97.04
64602;BME280;68371;42.630;23.192;2024-03-02T04:56:45;91697.63;;;7.36;97.17
64602;BME280;68371;42.630;23.192;2024-03-02T04:59:15;91695.47;;;7.38;96.70
64602;BME280;68371;42.630;23.192;2024-03-02T05:01:42;91700.44;;;7.43;96.35
64602;BME280;68371;42.630;23.192;2024-03-02T05:04:09;91703.16;;;7.47;96.57
64602;BME280;68371;42.630;23.192;2024-03-02T05:06:37;91702.81;;;7.49;96.16
64602;BME280;68371;42.630;23.192;2024-03-02T05:09:04;91707.06;;;7.53;96.12
64602;BME280;68371;42.630;23.192;2024-03-02T05:11:31;91705.13;;;7.50;96.56
64602;BME280;68371;42.630;23.192;2024-03-02T05:14:20;91702.94;;;7.52;96.21
64602;BME280;68371;42.630;23.192;2024-03-02T05:16:46;91707.06;;;7.53;95.59
64602;BME280;68371;42.630;23.192;2024-03-02T05:19:13;91704.53;;;7.57;95.92
64602;BME280;68371;42.630;23.192;2024-03-02T05:21:40;91707.16;;;7.57;96.16
64602;BME280;68371;42.630;23.192;2024-03-02T05:24:07;91708.22;;;7.56;96.25
64602;BME280;68371;42.630;23.192;2024-03-02T05:26:33;91715.00;;;7.57;95.33
64602;BME280;68371;42.630;23.192;2024-03-02T05:29:00;91715.31;;;7.55;95.27
64602;BME280;68371;42.630;23.192;2024-03-02T05:31:29;91717.28;;;7.58;95.39
64602;BME280;68371;42.630;23.192;2024-03-02T05:33:56;91716.19;;;7.59;95.76
64602;BME280;68371;42.630;23.192;2024-03-02T05:36:22;91722.16;;;7.60;96.22
64602;BME280;68371;42.630;23.192;2024-03-02T05:38:49;91722.84;;;7.57;95.94
64602;BME280;68371;42.630;23.192;2024-03-02T05:41:17;91720.53;;;7.55;96.24
64602;BME280;68371;42.630;23.192;2024-03-02T05:43:43;91725.78;;;7.55;96.60
64602;BME280;68371;42.630;23.192;2024-03-02T05:46:10;91723.25;;;7.59;96.77
64602;BME280;68371;42.630;23.192;2024-03-02T05:48:38;91727.81;;;7.62;96.92
64602;BME280;68371;42.630;23.192;2024-03-02T05:51:05;91733.88;;;7.50;96.92
64602;BME280;68371;42.630;23.192;2024-03-02T05:53:32;91723.31;;;7.47;96.95
64602;BME280;68371;42.630;23.192;2024-03-02T05:55:59;91731.31;;;7.54;97.17
64602;BME280;68371;42.630;23.192;2024-03-02T05:58:25;91725.78;;;7.55;97.09
64602;BME280;68371;42.630;23.192;2024-03-02T06:01:03;91726.53;;;7.56;97.00
64602;BME280;68371;42.630;23.192;2024-03-02T06:03:31;91728.38;;;7.55;97.01
64602;BME280;68371;42.630;23.192;2024-03-02T06:05:59;91716.22;;;7.47;97.06
64602;BME280;68371;42.630;23.192;2024-03-02T06:08:26;91740.81;;;7.58;97.28
64602;BME280;68371;42.630;23.192;2024-03-02T06:10:53;91739.28;;;7.57;97.24
64602;BME280;68371;42.630;23.192;2024-03-02T06:13:21;91728.97;;;7.49;97.43
64602;BME280;68371;42.630;23.192;2024-03-02T06:15:49;91737.81;;;7.44;98.44
64602;BME280;68371;42.630;23.192;2024-03-02T06:18:15;91738.13;;;7.42;98.23
64602;BME280;68371;42.630;23.192;2024-03-02T06:20:42;91736.91;;;7.40;98.54
64602;BME280;68371;42.630;23.192;2024-03-02T06:23:10;91735.69;;;7.50;98.06
64602;BME280;68371;42.630;23.192;2024-03-02T06:25:37;91744.53;;;7.45;98.30
64602;BME280;68371;42.630;23.192;2024-03-02T06:28:04;91736.06;;;7.48;97.99
64602;BME280;68371;42.630;23.192;2024-03-02T06:30:31;91742.38;;;7.35;98.43
64602;BME280;68371;42.630;23.192;2024-03-02T06:32:57;91737.69;;;7.40;98.43
64602;BME280;68371;42.630;23.192;2024-03-02T06:35:24;91738.38;;;7.25;99.37
64602;BME280;68371;42.630;23.192;2024-03-02T06:37:51;91738.69;;;7.23;99.13
64602;BME280;68371;42.630;23.192;2024-03-02T06:40:19;91742.41;;;7.22;99.58
64602;BME280;68371;42.630;23.192;2024-03-02T06:42:47;91745.88;;;7.27;99.67
64602;BME280;68371;42.630;23.192;2024-03-02T06:45:13;91743.16;;;7.23;99.56
64602;BME280;68371;42.630;23.192;2024-03-02T06:47:40;91748.19;;;7.28;99.34
64602;BME280;68371;42.630;23.192;2024-03-02T06:50:08;91749.56;;;7.26;100.00
64602;BME280;68371;42.630;23.192;2024-03-02T06:52:35;91745.13;;;7.26;99.85
64602;BME280;68371;42.630;23.192;2024-03-02T06:55:01;91754.47;;;7.27;100.00
64602;BME280;68371;42.630;23.192;2024-03-02T06:57:31;91755.44;;;7.35;100.00
64602;BME280;68371;42.630;23.192;2024-03-02T06:59:57;91760.03;;;7.26;99.64
64602;BME280;68371;42.630;23.192;2024-03-02T07:02:24;91757.09;;;7.27;99.54
64602;BME280;68371;42.630;23.192;2024-03-02T07:04:52;91761.69;;;7.18;99.85
64602;BME280;68371;42.630;23.192;2024-03-02T07:07:19;91763.22;;;7.07;100.00
64602;BME280;68371;42.630;23.192;2024-03-02T07:09:46;91760.59;;;7.19;100.00
64602;BME280;68371;42.630;23.192;2024-03-02T07:12:13;91763.97;;;7.07;100.00
64602;BME280;68371;42.630;23.192;2024-03-02T07:14:41;91762.47;;;7.06;100.00
64602;BME280;68371;42.630;23.192;2024-03-02T07:17:24;91764.09;;;7.11;100.00
64602;BME280;68371;42.630;23.192;2024-03-02T07:19:52;91763.94;;;7.19;100.00
64602;BME280;68371;42.630;23.192;2024-03-02T07:22:19;91768.66;;;7.26;100.00
64602;BME280;68371;42.630;23.192;2024-03-02T07:24:46;91762.09;;;7.32;100.00
64602;BME280;68371;42.630;23.192;2024-03-02T07:27:13;91743.72;;;7.16;100.00
64602;BME280;68371;42.630;23.192;2024-03-02T07:29:41;91768.50;;;7.35;100.00
64602;BME280;68371;42.630;23.192;2024-03-02T07:32:09;91760.81;;;7.26;100.00
64602;BME280;68371;42.630;23.192;2024-03-02T07:34:36;91774.59;;;7.39;100.00
64602;BME280;68371;42.630;23.192;2024-03-02T07:37:04;91774.38;;;7.44;100.00
64602;BME280;68371;42.630;23.192;2024-03-02T07:39:31;91774.59;;;7.39;100.00
64602;BME280;68371;42.630;23.192;2024-03-02T07:41:59;91777.84;;;7.36;100.00
64602;BME280;68371;42.630;23.192;2024-03-02T07:44:26;91784.31;;;7.26;100.00
64602;BME280;68371;42.630;23.192;2024-03-02T07:46:55;91775.91;;;7.33;100.00
64602;BME280;68371;42.630;23.192;2024-03-02T07:49:22;91774.81;;;7.46;100.00
64602;BME280;68371;42.630;23.192;2024-03-02T07:51:48;91776.53;;;7.42;100.00
64602;BME280;68371;42.630;23.192;2024-03-02T07:54:15;91777.44;;;7.46;100.00
64602;BME280;68371;42.630;23.192;2024-03-02T07:56:42;91781.00;;;7.54;100.00
64602;BME280;68371;42.630;23.192;2024-03-02T07:59:09;91783.53;;;7.50;100.00
64602;BME280;68371;42.630;23.192;2024-03-02T08:01:35;91780.53;;;7.64;100.00
64602;BME280;68371;42.630;23.192;2024-03-02T08:04:04;91782.28;;;7.60;100.00
64602;BME280;68371;42.630;23.192;2024-03-02T08:06:30;91791.88;;;7.56;100.00
64602;BME280;68371;42.630;23.192;2024-03-02T08:08:58;91786.34;;;7.45;100.00
64602;BME280;68371;42.630;23.192;2024-03-02T08:11:26;91790.47;;;7.58;100.00
64602;BME280;68371;42.630;23.192;2024-03-02T08:13:54;91792.94;;;7.67;100.00
64602;BME280;68371;42.630;23.192;2024-03-02T08:16:21;91796.22;;;7.64;100.00
64602;BME280;68371;42.630;23.192;2024-03-02T08:18:49;91798.34;;;7.46;100.00
64602;BME280;68371;42.630;23.192;2024-03-02T08:21:17;91794.59;;;7.59;100.00
64602;BME280;68371;42.630;23.192;2024-03-02T08:23:44;91798.63;;;7.57;100.00
64602;BME280;68371;42.630;23.192;2024-03-02T08:26:11;91796.88;;;7.61;100.00
64602;BME280;68371;42.630;23.192;2024-03-02T08:28:38;91771.31;;;7.42;100.00
64602;BME280;68371;42.630;23.192;2024-03-02T08:31:06;91800.34;;;7.65;100.00
64602;BME280;68371;42.630;23.192;2024-03-02T08:33:32;91794.84;;;7.82;100.00
64602;BME280;68371;42.630;23.192;2024-03-02T08:36:00;91799.56;;;7.77;100.00
64602;BME280;68371;42.630;23.192;2024-03-02T08:38:28;91797.88;;;7.97;100.00
64602;BME280;68371;42.630;23.192;2024-03-02T08:40:56;91798.91;;;8.08;100.00
64602;BME280;68371;42.630;23.192;2024-03-02T08:43:23;91797.69;;;8.18;99.85
64602;BME280;68371;42.630;23.192;2024-03-02T08:45:50;91786.03;;;8.15;98.21
64602;BME280;68371;42.630;23.192;2024-03-02T08:48:17;91797.91;;;8.41;96.84
64602;BME280;68371;42.630;23.192;2024-03-02T08:50:44;91805.22;;;8.35;96.72
64602;BME280;68371;42.630;23.192;2024-03-02T08:53:10;91799.81;;;8.28;96.93
64602;BME280;68371;42.630;23.192;2024-03-02T08:55:38;91800.44;;;8.09;97.39
64602;BME280;68371;42.630;23.192;2024-03-02T08:58:05;91789.13;;;8.05;97.21
64602;BME280;68371;42.630;23.192;2024-03-02T09:00:33;91795.53;;;8.36;97.26
64602;BME280;68371;42.630;23.192;2024-03-02T09:03:00;91800.72;;;8.48;96.76
64602;BME280;68371;42.630;23.192;2024-03-02T09:05:27;91792.88;;;8.48;95.12
64602;BME280;68371;42.630;23.192;2024-03-02T09:07:53;91747.97;;;8.18;96.73
64602;BME280;68371;42.630;23.192;2024-03-02T09:10:20;91804.38;;;8.75;96.34
64602;BME280;68371;42.630;23.192;2024-03-02T09:12:48;91801.41;;;8.77;96.71
64602;BME280;68371;42.630;23.192;2024-03-02T09:15:15;91810.22;;;8.85;97.15
64602;BME280;68371;42.630;23.192;2024-03-02T09:17:42;91812.66;;;8.93;94.02
64602;BME280;68371;42.630;23.192;2024-03-02T09:20:10;91798.91;;;8.96;94.43
64602;BME280;68371;42.630;23.192;2024-03-02T09:22:38;91818.41;;;9.15;94.47
64602;BME280;68371;42.630;23.192;2024-03-02T09:25:05;91825.16;;;9.16;93.53
64602;BME280;68371;42.630;23.192;2024-03-02T09:27:36;91821.97;;;9.07;93.54
64602;BME280;68371;42.630;23.192;2024-03-02T09:30:07;91821.16;;;9.22;93.80
64602;BME280;68371;42.630;23.192;2024-03-02T09:32:34;91824.47;;;9.19;93.74
64602;BME280;68371;42.630;23.192;2024-03-02T09:35:02;91822.69;;;9.23;93.54
64602;BME280;68371;42.630;23.192;2024-03-02T09:37:28;91819.25;;;9.19;92.65
64602;BME280;68371;42.630;23.192;2024-03-02T09:39:55;91829.31;;;9.17;91.13
64602;BME280;68371;42.630;23.192;2024-03-02T09:42:22;91834.88;;;9.15;91.97
64602;BME280;68371;42.630;23.192;2024-03-02T09:44:49;91834.97;;;9.35;91.36
64602;BME280;68371;42.630;23.192;2024-03-02T09:47:18;91820.84;;;9.23;89.44
64602;BME280;68371;42.630;23.192;2024-03-02T09:49:44;91831.63;;;9.38;90.23
64602;BME280;68371;42.630;23.192;2024-03-02T09:52:11;91823.63;;;9.31;89.04
64602;BME280;68371;42.630;23.192;2024-03-02T09:54:40;91809.69;;;9.11;89.51
64602;BME280;68371;42.630;23.192;2024-03-02T09:57:07;91822.84;;;9.30;91.70
64602;BME280;68371;42.630;23.192;2024-03-02T09:59:33;91806.22;;;9.22;91.74
64602;BME280;68371;42.630;23.192;2024-03-02T10:02:01;91830.34;;;9.48;90.01
64602;BME280;68371;42.630;23.192;2024-03-02T10:04:30;91829.13;;;9.26;88.79
64602;BME280;68371;42.630;23.192;2024-03-02T10:07:13;91822.16;;;9.49;90.94
64602;BME280;68371;42.630;23.192;2024-03-02T10:09:41;91834.78;;;9.43;89.56
64602;BME280;68371;42.630;23.192;2024-03-02T10:12:10;91827.66;;;9.44;88.88
64602;BME280;68371;42.630;23.192;2024-03-02T10:14:37;91827.13;;;9.54;88.78
64602;BME280;68371;42.630;23.192;2024-03-02T10:17:05;91826.59;;;9.65;88.36
64602;BME280;68371;42.630;23.192;2024-03-02T10:19:34;91823.56;;;9.62;86.53
64602;BME280;68371;42.630;23.192;2024-03-02T10:22:03;91827.47;;;9.53;87.46
64602;BME280;68371;42.630;23.192;2024-03-02T10:24:37;91822.00;;;9.42;88.60
64602;BME280;68371;42.630;23.192;2024-03-02T10:27:09;91822.94;;;9.34;89.08
64602;BME280;68371;42.630;23.192;2024-03-02T10:29:40;91826.06;;;9.23;89.73
64602;BME280;68371;42.630;23.192;2024-03-02T10:32:10;91824.19;;;9.40;89.02
64602;BME280;68371;42.630;23.192;2024-03-02T10:34:41;91828.25;;;9.37;89.23
64602;BME280;68371;42.630;23.192;2024-03-02T10:37:08;91804.78;;;9.09;87.58
64602;BME280;68371;42.630;23.192;2024-03-02T10:39:38;91819.06;;;9.12;87.49
64602;BME280;68371;42.630;23.192;2024-03-02T10:42:06;91816.34;;;9.24;88.09
64602;BME280;68371;42.630;23.192;2024-03-02T10:44:34;91816.44;;;9.28;89.38
64602;BME280;68371;42.630;23.192;2024-03-02T10:47:02;91818.41;;;9.15;89.21
64602;BME280;68371;42.630;23.192;2024-03-02T10:49:30;91812.91;;;9.04;87.83
64602;BME280;68371;42.630;23.192;2024-03-02T10:51:59;91790.84;;;8.73;88.63
64602;BME280;68371;42.630;23.192;2024-03-02T10:54:26;91807.31;;;8.90;88.41
64602;BME280;68371;42.630;23.192;2024-03-02T10:56:55;91811.06;;;9.05;89.46
64602;BME280;68371;42.630;23.192;2024-03-02T10:59:27;91810.63;;;9.02;89.21
64602;BME280;68371;42.630;23.192;2024-03-02T11:01:56;91806.91;;;9.03;89.06
64602;BME280;68371;42.630;23.192;2024-03-02T11:04:25;91801.47;;;9.12;88.88
64602;BME280;68371;42.630;23.192;2024-03-02T11:06:56;91803.84;;;9.17;89.04
64602;BME280;68371;42.630;23.192;2024-03-02T11:09:28;91802.50;;;9.08;89.99
64602;BME280;68371;42.630;23.192;2024-03-02T11:12:00;91803.53;;;9.03;89.24
64602;BME280;68371;42.630;23.192;2024-03-02T11:14:30;91807.13;;;9.14;89.56
64602;BME280;68371;42.630;23.192;2024-03-02T11:16:58;91806.38;;;8.98;89.08
64602;BME280;68371;42.630;23.192;2024-03-02T11:19:25;91808.44;;;9.05;89.27
64602;BME280;68371;42.630;23.192;2024-03-02T11:21:53;91803.53;;;9.19;88.69
64602;BME280;68371;42.630;23.192;2024-03-02T11:24:31;91792.22;;;8.99;89.20
64602;BME280;68371;42.630;23.192;2024-03-02T11:27:03;91797.53;;;8.87;89.58
64602;BME280;68371;42.630;23.192;2024-03-02T11:29:48;91798.28;;;8.87;89.83
64602;BME280;68371;42.630;23.192;2024-03-02T11:32:16;91789.75;;;8.74;89.72
64602;BME280;68371;42.630;23.192;2024-03-02T11:34:45;91789.75;;;8.74;89.49
64602;BME280;68371;42.630;23.192;2024-03-02T11:37:12;91790.84;;;8.57;89.97
64602;BME280;68371;42.630;23.192;2024-03-02T11:39:43;91798.34;;;8.59;90.33
64602;BME280;68371;42.630;23.192;2024-03-02T11:42:11;91798.69;;;8.73;90.88
64602;BME280;68371;42.630;23.192;2024-03-02T11:44:41;91778.59;;;8.77;88.45
64602;BME280;68371;42.630;23.192;2024-03-02T11:47:11;91794.72;;;8.95;88.87
64602;BME280;68371;42.630;23.192;2024-03-02T11:49:41;91793.03;;;9.03;88.90
64602;BME280;68371;42.630;23.192;2024-03-02T11:52:09;91792.03;;;9.08;89.75
64602;BME280;68371;42.630;23.192;2024-03-02T11:54:37;91797.06;;;9.16;90.09
64602;BME280;68371;42.630;23.192;2024-03-02T11:57:08;91792.34;;;9.22;89.43
64602;BME280;68371;42.630;23.192;2024-03-02T11:59:34;91793.53;;;9.25;87.40
64602;BME280;68371;42.630;23.192;2024-03-02T12:02:01;91789.72;;;9.22;87.98
64602;BME280;68371;42.630;23.192;2024-03-02T12:04:29;91782.38;;;9.12;87.89
64602;BME280;68371;42.630;23.192;2024-03-02T12:06:56;91796.66;;;9.14;87.94
64602;BME280;68371;42.630;23.192;2024-03-02T12:09:26;91792.09;;;9.11;87.57
64602;BME280;68371;42.630;23.192;2024-03-02T12:12:03;91790.91;;;9.25;88.41
64602;BME280;68371;42.630;23.192;2024-03-02T12:14:32;91795.97;;;9.33;87.24
64602;BME280;68371;42.630;23.192;2024-03-02T12:16:59;91785.06;;;9.31;86.76
64602;BME280;68371;42.630;23.192;2024-03-02T12:19:26;91785.72;;;9.44;85.51
64602;BME280;68371;42.630;23.192;2024-03-02T12:21:55;91790.09;;;9.56;85.51
64602;BME280;68371;42.630;23.192;2024-03-02T12:24:23;91793.13;;;9.58;84.61
64602;BME280;68371;42.630;23.192;2024-03-02T12:26:50;91778.69;;;9.48;84.83
64602;BME280;68371;42.630;23.192;2024-03-02T12:29:18;91785.47;;;9.69;84.30
64602;BME280;68371;42.630;23.192;2024-03-02T12:31:47;91789.69;;;9.73;82.92
64602;BME280;68371;42.630;23.192;2024-03-02T12:34:16;91790.94;;;9.79;82.45
64602;BME280;68371;42.630;23.192;2024-03-02T12:36:44;91790.25;;;9.82;81.07
64602;BME280;68371;42.630;23.192;2024-03-02T12:39:13;91780.78;;;9.78;79.84
64602;BME280;68371;42.630;23.192;2024-03-02T12:41:41;91790.25;;;9.82;79.61
64602;BME280;68371;42.630;23.192;2024-03-02T12:44:09;91790.25;;;9.82;81.85
64602;BME280;68371;42.630;23.192;2024-03-02T12:46:36;91787.78;;;9.90;85.34
64602;BME280;68371;42.630;23.192;2024-03-02T12:49:09;91793.84;;;9.94;86.45
64602;BME280;68371;42.630;23.192;2024-03-02T12:51:37;91790.53;;;9.97;86.87
64602;BME280;68371;42.630;23.192;2024-03-02T12:54:06;91789.78;;;9.96;85.59
64602;BME280;68371;42.630;23.192;2024-03-02T12:56:33;91787.63;;;10.02;85.87
64602;BME280;68371;42.630;23.192;2024-03-02T12:59:00;91790.53;;;9.97;86.33
64602;BME280;68371;42.630;23.192;2024-03-02T13:01:27;91781.91;;;9.96;86.36
64602;BME280;68371;42.630;23.192;2024-03-02T13:03:54;91783.56;;;10.05;86.76